Time;durP1;ratioP1;P1;durP2;ratioP2;P2;SDS_P1;SDS_P2;PMS_P1;PMS_P2;Temp;Humidity;BMP_temperature;BMP_pressure;BME280_temperature;BME280_humidity;BME280_pressure;Samples;Min_cycle;Max_cycle;Signal;HPM_P1;HPM_P2
2023/08/25 00:00:43;;;;;;;23.52;19.17;;;19.60;99.90;;;;;;4998275;28;20018;-88
2023/08/25 00:03:09;;;;;;;23.20;17.75;;;19.50;99.90;;;;;;4982773;28;20081;-89
2023/08/25 00:05:38;;;;;;;20.48;18.38;;;19.50;99.90;;;;;;5029070;28;20084;-89
2023/08/25 00:08:05;;;;;;;23.15;20.67;;;19.40;99.90;;;;;;4998069;28;20080;-89
2023/08/25 00:10:30;;;;;;;23.30;20.58;;;19.40;99.90;;;;;;4997997;28;20026;-89
2023/08/25 00:12:56;;;;;;;26.13;22.35;;;19.30;99.90;;;;;;4997359;28;20045;-88
2023/08/25 00:15:22;;;;;;;23.52;21.08;;;19.30;99.90;;;;;;4997960;28;20029;-89
2023/08/25 00:17:49;;;;;;;21.55;19.40;;;19.20;99.90;;;;;;5005461;28;20046;-89
2023/08/25 00:20:14;;;;;;;22.77;20.33;;;19.20;99.90;;;;;;5010598;28;20029;-88
2023/08/25 00:22:40;;;;;;;23.40;20.88;;;19.10;99.90;;;;;;4997331;28;20040;-88
2023/08/25 00:25:07;;;;;;;23.42;20.90;;;19.10;99.90;;;;;;4997327;28;20030;-89
2023/08/25 00:27:33;;;;;;;63.58;20.77;;;19.00;99.90;;;;;;4997519;28;20034;-88
2023/08/25 00:29:58;;;;;;;20.83;18.67;;;19.00;99.90;;;;;;4997441;28;20128;-88
2023/08/25 00:32:24;;;;;;;22.92;20.60;;;18.90;99.90;;;;;;4996857;28;20498;-88
2023/08/25 00:34:49;;;;;;;34.42;16.77;;;18.90;99.90;;;;;;4997565;28;20026;-88
2023/08/25 00:37:15;;;;;;;90.90;16.88;;;18.80;99.90;;;;;;4994471;28;20034;-88
2023/08/25 00:39:40;;;;;;;89.65;9.40;;;18.80;99.90;;;;;;5008812;28;20058;-88
2023/08/25 00:42:06;;;;;;;43.10;13.48;;;18.70;99.90;;;;;;5004123;28;20116;-88
2023/08/25 00:44:31;;;;;;;21.88;16.73;;;18.60;99.90;;;;;;4996753;28;20036;-87
2023/08/25 00:46:58;;;;;;;21.73;19.60;;;18.50;99.90;;;;;;4997470;28;20102;-89
2023/08/25 00:49:24;;;;;;;23.98;21.48;;;18.50;99.90;;;;;;4997322;28;20112;-88
2023/08/25 00:51:51;;;;;;;25.90;21.30;;;18.50;99.90;;;;;;4997192;28;20053;-88
2023/08/25 00:54:19;;;;;;;21.63;19.42;;;18.50;99.90;;;;;;4982709;28;20050;-88
2023/08/25 00:56:46;;;;;;;25.23;22.52;;;18.50;99.90;;;;;;5001640;28;20529;-88
2023/08/25 00:59:11;;;;;;;28.08;25.15;;;18.60;99.90;;;;;;4991237;28;20034;-88
2023/08/25 01:01:37;;;;;;;25.52;22.95;;;18.60;99.90;;;;;;5018892;28;20569;-88
2023/08/25 01:04:03;;;;;;;30.92;27.00;;;18.70;99.90;;;;;;4997869;28;20080;-88
2023/08/25 01:06:28;;;;;;;28.63;25.52;;;18.70;99.90;;;;;;4999846;28;20030;-88
2023/08/25 01:08:54;;;;;;;25.73;23.10;;;18.80;99.90;;;;;;4996276;28;20099;-88
2023/08/25 01:11:44;;;;;;;27.23;24.45;;;18.80;99.90;;;;;;4996154;28;20048;-88
2023/08/25 01:14:30;;;;;;;29.92;26.60;;;18.80;99.90;;;;;;4998048;28;20022;-88
2023/08/25 01:17:32;;;;;;;29.50;25.88;;;18.80;99.90;;;;;;4996051;28;20037;-88
2023/08/25 01:20:09;;;;;;;31.23;27.02;;;18.90;99.90;;;;;;4996350;28;20034;-88
2023/08/25 01:22:50;;;;;;;25.25;22.55;;;18.90;99.90;;;;;;4993418;28;20026;-88
2023/08/25 01:25:27;;;;;;;27.25;24.33;;;18.90;99.90;;;;;;5008801;28;20021;-88
2023/08/25 01:27:55;;;;;;;29.67;26.08;;;18.90;99.90;;;;;;4995661;28;20494;-88
2023/08/25 01:30:26;;;;;;;32.05;26.42;;;18.90;99.90;;;;;;4995799;28;20022;-89
2023/08/25 01:32:52;;;;;;;33.70;27.40;;;18.90;99.90;;;;;;4996439;28;20069;-88
2023/08/25 01:35:24;;;;;;;32.50;28.10;;;19.00;99.90;;;;;;4996042;28;20069;-89
2023/08/25 01:38:26;;;;;;;27.75;24.70;;;19.00;99.90;;;;;;4995563;28;20048;-88
2023/08/25 01:41:28;;;;;;;26.42;23.10;;;19.10;99.90;;;;;;4986919;28;20375;-88
2023/08/25 01:43:56;;;;;;;28.23;24.25;;;19.00;99.90;;;;;;4989574;28;20038;-88
2023/08/25 01:46:23;;;;;;;28.92;25.85;;;19.00;99.90;;;;;;4995526;28;20030;-89
2023/08/25 01:48:52;;;;;;;32.78;26.85;;;19.10;99.90;;;;;;4995713;28;20084;-88
2023/08/25 01:51:19;;;;;;;29.60;26.42;;;19.10;99.90;;;;;;4994873;28;20117;-88
2023/08/25 01:53:48;;;;;;;33.33;27.88;;;19.10;99.90;;;;;;4995378;28;20065;-88
2023/08/25 01:56:14;;;;;;;33.58;29.15;;;19.10;99.90;;;;;;4996155;28;20052;-89
2023/08/25 01:58:39;;;;;;;31.60;28.17;;;19.10;99.90;;;;;;5012984;28;20033;-89
2023/08/25 02:01:05;;;;;;;24.92;22.20;;;19.10;99.90;;;;;;4994996;28;20032;-89
2023/08/25 02:03:30;;;;;;;30.25;25.50;;;19.10;99.90;;;;;;5013519;28;20030;-89
2023/08/25 02:05:56;;;;;;;30.45;25.40;;;19.10;99.90;;;;;;5012490;28;20069;-88
2023/08/25 02:08:21;;;;;;;30.38;25.52;;;19.20;99.90;;;;;;4995160;28;20069;-88
2023/08/25 02:10:47;;;;;;;30.45;26.92;;;19.20;99.90;;;;;;5012809;28;20033;-88
2023/08/25 02:13:13;;;;;;;32.63;29.13;;;19.20;99.90;;;;;;5020041;28;20442;-88
2023/08/25 02:15:43;;;;;;;31.50;27.88;;;19.20;99.90;;;;;;4994100;28;20038;-88
2023/08/25 02:18:09;;;;;;;31.30;26.05;;;19.20;99.90;;;;;;4987098;28;20061;-88
2023/08/25 02:20:38;;;;;;;26.50;23.63;;;19.20;99.90;;;;;;4995008;28;20108;-88
2023/08/25 02:23:04;;;;;;;30.42;24.73;;;19.20;99.90;;;;;;4995571;28;20025;-88
2023/08/25 02:25:30;;;;;;;31.48;26.83;;;19.20;99.90;;;;;;4994718;28;20628;-88
2023/08/25 02:27:56;;;;;;;27.02;24.33;;;19.30;99.90;;;;;;4994609;28;20080;-89
2023/08/25 02:30:22;;;;;;;30.10;26.08;;;19.30;99.90;;;;;;5000079;28;20382;-88
2023/08/25 02:32:47;;;;;;;41.15;29.33;;;19.20;99.90;;;;;;4998636;28;20034;-88
2023/08/25 02:35:13;;;;;;;35.42;27.83;;;19.30;99.90;;;;;;5003423;28;20061;-88
2023/08/25 02:37:55;;;;;;;34.47;28.65;;;19.30;99.90;;;;;;4989257;28;20042;-88
2023/08/25 02:40:20;;;;;;;30.00;25.17;;;19.30;99.90;;;;;;5006016;28;20022;-88
2023/08/25 02:42:46;;;;;;;33.90;25.40;;;19.30;99.90;;;;;;4996875;28;20072;-88
2023/08/25 02:45:11;;;;;;;27.27;24.33;;;19.30;99.90;;;;;;4994655;28;20057;-88
2023/08/25 02:47:37;;;;;;;37.63;27.80;;;19.40;99.90;;;;;;4995093;28;20030;-88
2023/08/25 02:50:03;;;;;;;33.15;27.65;;;19.40;99.90;;;;;;5008416;28;20073;-88
2023/08/25 02:52:28;;;;;;;28.98;25.92;;;19.40;99.90;;;;;;4992339;28;20025;-88
2023/08/25 02:54:54;;;;;;;28.90;25.77;;;19.40;99.90;;;;;;4994839;28;20053;-88
2023/08/25 02:57:19;;;;;;;29.80;26.52;;;19.40;99.90;;;;;;4994746;28;20033;-88
2023/08/25 02:59:45;;;;;;;34.05;27.15;;;19.40;99.90;;;;;;4992432;28;20023;-88
2023/08/25 03:02:10;;;;;;;35.35;27.23;;;19.50;99.90;;;;;;4994885;28;20026;-88
2023/08/25 03:04:37;;;;;;;33.75;28.23;;;19.40;99.90;;;;;;4994298;28;20520;-88
2023/08/25 03:07:02;;;;;;;32.22;26.58;;;19.40;99.90;;;;;;4994989;28;20112;-88
2023/08/25 03:09:28;;;;;;;32.92;28.23;;;19.50;99.90;;;;;;5013064;28;20551;-88
2023/08/25 03:11:53;;;;;;;33.78;28.88;;;19.50;99.90;;;;;;4993155;28;20497;-88
2023/08/25 03:14:19;;;;;;;37.80;29.67;;;19.50;99.90;;;;;;4994558;28;20121;-88
2023/08/25 03:16:44;;;;;;;46.60;31.80;;;19.50;99.90;;;;;;4999093;28;20042;-89
2023/08/25 03:19:10;;;;;;;40.67;31.67;;;19.50;99.90;;;;;;4994432;28;20057;-88
2023/08/25 03:21:35;;;;;;;44.72;33.08;;;19.50;99.90;;;;;;4991203;28;20089;-88
2023/08/25 03:24:01;;;;;;;41.90;32.90;;;19.50;99.90;;;;;;4975441;28;20643;-87
2023/08/25 03:26:27;;;;;;;38.67;31.20;;;19.50;99.90;;;;;;4977106;28;20026;-88
2023/08/25 03:28:53;;;;;;;41.80;32.53;;;19.50;99.90;;;;;;4993544;28;20018;-87
2023/08/25 03:31:19;;;;;;;39.45;31.98;;;19.60;99.90;;;;;;4994728;28;20022;-88
2023/08/25 03:33:44;;;;;;;42.22;31.50;;;19.60;99.90;;;;;;4994901;28;20026;-88
2023/08/25 03:36:10;;;;;;;36.97;29.90;;;19.60;99.90;;;;;;4996888;28;20047;-88
2023/08/25 03:38:35;;;;;;;42.72;33.00;;;19.60;99.90;;;;;;5001002;28;20479;-88
2023/08/25 03:41:00;;;;;;;44.58;31.55;;;19.60;99.90;;;;;;4993282;28;20041;-88
2023/08/25 03:43:26;;;;;;;43.95;32.65;;;19.60;99.90;;;;;;5009412;28;20022;-88
2023/08/25 03:45:52;;;;;;;41.60;31.77;;;19.60;99.90;;;;;;4994188;28;20029;-88
2023/08/25 03:48:17;;;;;;;43.08;31.20;;;19.60;99.90;;;;;;4994525;28;20033;-88
2023/08/25 03:50:47;;;;;;;37.60;30.10;;;19.60;99.90;;;;;;4994226;28;20422;-88
2023/08/25 03:53:13;;;;;;;40.60;31.60;;;19.70;99.90;;;;;;4997576;28;20084;-89
2023/08/25 03:55:38;;;;;;;45.05;32.95;;;19.60;99.90;;;;;;4998388;28;20050;-88
2023/08/25 03:58:04;;;;;;;46.67;33.20;;;19.70;99.90;;;;;;4997983;28;20037;-88
2023/08/25 04:00:29;;;;;;;44.92;33.05;;;19.60;99.90;;;;;;4998121;28;20048;-88
2023/08/25 04:02:56;;;;;;;43.55;32.97;;;19.70;99.90;;;;;;4995760;28;20048;-88
2023/08/25 04:05:21;;;;;;;39.10;32.05;;;19.60;99.90;;;;;;4998369;28;20022;-88
2023/08/25 04:07:48;;;;;;;42.17;31.90;;;19.60;99.90;;;;;;4998133;28;20034;-88
2023/08/25 04:10:14;;;;;;;40.90;30.55;;;19.70;99.90;;;;;;4998504;28;20478;-88
2023/08/25 04:12:39;;;;;;;41.08;29.98;;;19.70;99.90;;;;;;4998243;28;20053;-88
2023/08/25 04:15:06;;;;;;;48.65;34.38;;;19.70;99.90;;;;;;4995301;28;20025;-88
2023/08/25 04:17:34;;;;;;;46.35;33.22;;;19.70;99.90;;;;;;4978901;28;20062;-88
2023/08/25 04:20:01;;;;;;;49.17;33.97;;;19.70;99.90;;;;;;4991080;28;20034;-88
2023/08/25 04:22:26;;;;;;;46.65;33.40;;;19.60;99.90;;;;;;4997708;28;20037;-88
2023/08/25 04:24:52;;;;;;;42.63;32.40;;;19.70;99.90;;;;;;5012906;28;20494;-88
2023/08/25 04:27:17;;;;;;;44.00;33.63;;;19.70;99.90;;;;;;4998145;28;20380;-88
2023/08/25 04:29:43;;;;;;;43.83;32.63;;;19.70;99.90;;;;;;5008141;28;20475;-88
2023/08/25 04:32:09;;;;;;;40.85;31.02;;;19.70;99.90;;;;;;5014893;28;20021;-88
2023/08/25 04:34:34;;;;;;;45.45;32.47;;;19.70;99.90;;;;;;5014901;28;20545;-87
2023/08/25 04:37:00;;;;;;;57.97;34.53;;;19.70;99.90;;;;;;5014493;28;20042;-88
2023/08/25 04:39:25;;;;;;;40.47;32.80;;;19.70;99.90;;;;;;4998198;28;20049;-87
2023/08/25 04:41:51;;;;;;;44.78;33.50;;;19.70;99.90;;;;;;4997683;28;20517;-87
2023/08/25 04:44:16;;;;;;;43.47;33.58;;;19.70;99.90;;;;;;4997841;28;20022;-87
2023/08/25 04:46:42;;;;;;;44.08;32.33;;;19.70;99.90;;;;;;4997500;28;20041;-88
2023/08/25 04:49:09;;;;;;;46.75;34.72;;;19.70;99.90;;;;;;4997891;28;20433;-88
2023/08/25 04:51:35;;;;;;;46.53;32.47;;;19.80;99.90;;;;;;4996965;28;20084;-88
2023/08/25 04:54:00;;;;;;;47.83;32.78;;;19.70;99.90;;;;;;4996530;28;20026;-90
2023/08/25 04:56:26;;;;;;;44.60;32.42;;;19.70;99.90;;;;;;4997426;28;20038;-88
2023/08/25 04:58:52;;;;;;;45.45;34.42;;;19.80;99.90;;;;;;4997020;28;20380;-89
2023/08/25 05:01:17;;;;;;;47.00;32.75;;;19.80;99.90;;;;;;4987124;28;20022;-89
2023/08/25 05:03:44;;;;;;;50.28;36.65;;;19.80;99.90;;;;;;4996203;28;20378;-89
2023/08/25 05:06:10;;;;;;;45.20;34.17;;;19.80;99.90;;;;;;4997221;28;20022;-88
2023/08/25 05:08:36;;;;;;;49.63;35.75;;;19.80;99.90;;;;;;4996723;28;20040;-88
2023/08/25 05:11:03;;;;;;;49.78;36.28;;;19.80;99.90;;;;;;5014661;28;20462;-88
2023/08/25 05:13:28;;;;;;;43.80;33.83;;;19.80;99.90;;;;;;4997104;28;20048;-87
2023/08/25 05:15:54;;;;;;;50.10;34.92;;;19.80;99.90;;;;;;4996380;28;20089;-87
2023/08/25 05:18:19;;;;;;;52.83;35.55;;;19.80;99.90;;;;;;4996718;28;20042;-87
2023/08/25 05:20:45;;;;;;;52.20;36.28;;;19.90;99.90;;;;;;4987670;28;20029;-87
2023/08/25 05:23:10;;;;;;;57.00;37.88;;;19.90;99.90;;;;;;4978910;28;20026;-87
2023/08/25 05:25:37;;;;;;;49.78;36.22;;;19.80;99.90;;;;;;5013772;28;20026;-87
2023/08/25 05:28:03;;;;;;;54.60;37.25;;;19.90;99.90;;;;;;5013240;28;20076;-88
2023/08/25 05:30:28;;;;;;;59.25;39.17;;;19.80;99.90;;;;;;5010167;28;20053;-88
2023/08/25 05:32:54;;;;;;;58.92;39.15;;;19.80;99.90;;;;;;4977023;28;20030;-87
2023/08/25 05:35:19;;;;;;;54.75;38.42;;;19.70;99.90;;;;;;5002423;28;20117;-87
2023/08/25 05:37:45;;;;;;;57.88;38.65;;;19.70;99.90;;;;;;4996450;28;20479;-88
2023/08/25 05:40:12;;;;;;;60.00;40.15;;;19.80;99.90;;;;;;5013551;28;20112;-87
2023/08/25 05:42:38;;;;;;;65.05;40.00;;;19.80;99.90;;;;;;4992930;28;20026;-88
2023/08/25 05:45:04;;;;;;;60.95;40.30;;;19.80;99.90;;;;;;5010737;28;20022;-87
2023/08/25 05:47:30;;;;;;;56.38;37.38;;;19.80;99.90;;;;;;4996262;28;20033;-87
2023/08/25 05:49:57;;;;;;;54.65;37.92;;;19.90;99.90;;;;;;4992771;28;20096;-87
2023/08/25 05:52:23;;;;;;;58.70;39.30;;;19.90;99.90;;;;;;5002959;28;20540;-87
2023/08/25 05:54:48;;;;;;;56.97;39.28;;;20.00;99.90;;;;;;5000590;28;20053;-87
2023/08/25 05:57:14;;;;;;;50.58;36.88;;;20.20;99.90;;;;;;5012688;28;20454;-87
2023/08/25 05:59:40;;;;;;;56.63;38.63;;;20.20;99.90;;;;;;5013105;28;20471;-87
2023/08/25 06:02:06;;;;;;;50.75;36.97;;;20.30;99.90;;;;;;4988183;28;20027;-87
2023/08/25 06:04:31;;;;;;;57.15;37.40;;;20.30;99.90;;;;;;4977099;28;20037;-87
2023/08/25 06:06:57;;;;;;;54.15;37.42;;;20.30;99.90;;;;;;4994057;28;20026;-87
2023/08/25 06:09:23;;;;;;;55.70;39.50;;;20.30;99.90;;;;;;5002455;28;20022;-86
2023/08/25 06:11:49;;;;;;;60.03;41.08;;;20.30;99.90;;;;;;4992537;28;20033;-87
2023/08/25 06:14:14;;;;;;;59.38;39.03;;;20.30;99.90;;;;;;4992378;28;20023;-87
2023/08/25 06:16:41;;;;;;;58.55;40.30;;;20.30;99.90;;;;;;5001687;28;20033;-87
2023/08/25 06:19:07;;;;;;;61.47;39.30;;;20.40;99.90;;;;;;4995662;28;20034;-88
2023/08/25 06:21:33;;;;;;;55.42;37.92;;;20.40;99.90;;;;;;4996014;28;20049;-87
2023/08/25 06:23:59;;;;;;;53.08;36.88;;;20.40;99.90;;;;;;5008365;28;20015;-86
2023/08/25 06:26:25;;;;;;;56.65;37.53;;;20.40;99.90;;;;;;4976188;28;20087;-87
2023/08/25 06:28:52;;;;;;;55.30;37.97;;;20.40;99.90;;;;;;4977986;28;20022;-86
2023/08/25 06:31:18;;;;;;;55.72;36.65;;;20.40;99.90;;;;;;4995793;28;20029;-87
2023/08/25 06:33:45;;;;;;;55.10;38.17;;;20.30;99.90;;;;;;5009783;28;20113;-85
2023/08/25 06:36:10;;;;;;;57.17;37.95;;;20.30;99.90;;;;;;4992226;28;20030;-85
2023/08/25 06:38:36;;;;;;;51.13;35.78;;;20.30;99.90;;;;;;4995590;28;20100;-85
2023/08/25 06:41:03;;;;;;;49.47;36.30;;;20.30;99.90;;;;;;4995230;28;20026;-85
2023/08/25 06:43:28;;;;;;;52.58;36.03;;;20.30;99.90;;;;;;4995568;28;20080;-85
2023/08/25 06:45:54;;;;;;;58.03;37.38;;;20.30;99.90;;;;;;4994742;28;20022;-86
2023/08/25 06:48:20;;;;;;;53.05;35.72;;;20.30;99.90;;;;;;4995234;28;20037;-86
2023/08/25 06:50:45;;;;;;;53.75;36.50;;;20.20;99.90;;;;;;4992831;28;20014;-86
2023/08/25 06:53:11;;;;;;;60.53;40.20;;;20.20;99.90;;;;;;4994459;28;20030;-86
2023/08/25 06:55:36;;;;;;;53.47;36.80;;;20.10;99.90;;;;;;4999227;28;20049;-86
2023/08/25 06:58:02;;;;;;;60.53;38.05;;;20.10;99.90;;;;;;4993070;28;20042;-86
2023/08/25 07:00:29;;;;;;;55.17;38.42;;;20.10;99.90;;;;;;4991504;28;20117;-86
2023/08/25 07:02:54;;;;;;;59.95;38.92;;;20.10;99.90;;;;;;5005352;28;20042;-86
2023/08/25 07:05:20;;;;;;;56.13;38.22;;;20.10;99.90;;;;;;4993942;28;20026;-86
2023/08/25 07:07:46;;;;;;;66.10;40.47;;;20.00;99.90;;;;;;4998835;28;20022;-86
2023/08/25 07:10:15;;;;;;;58.35;38.55;;;20.00;99.90;;;;;;4995114;28;20568;-86
2023/08/25 07:12:42;;;;;;;56.55;40.65;;;19.90;99.90;;;;;;5000734;28;20026;-86
2023/08/25 07:15:08;;;;;;;57.05;38.53;;;19.90;99.90;;;;;;5007928;28;20117;-86
2023/08/25 07:17:34;;;;;;;56.50;39.13;;;19.90;99.90;;;;;;4995184;28;20062;-86
2023/08/25 07:20:00;;;;;;;55.30;37.67;;;19.80;99.90;;;;;;4995229;28;20585;-86
2023/08/25 07:22:25;;;;;;;61.38;40.67;;;19.80;99.90;;;;;;4995971;28;20026;-86
2023/08/25 07:24:53;;;;;;;65.03;43.10;;;19.80;99.90;;;;;;4995166;28;20026;-85
2023/08/25 07:27:20;;;;;;;64.43;42.67;;;19.80;99.90;;;;;;4998913;28;20030;-86
2023/08/25 07:29:45;;;;;;;65.63;42.38;;;19.70;99.90;;;;;;4998950;28;20474;-86
2023/08/25 07:32:11;;;;;;;64.93;43.88;;;19.80;99.90;;;;;;4999184;28;20025;-85
2023/08/25 07:34:37;;;;;;;63.83;41.85;;;19.80;99.90;;;;;;4999071;28;20044;-86
2023/08/25 07:37:02;;;;;;;57.75;40.10;;;19.90;99.90;;;;;;4998161;28;20184;-86
2023/08/25 07:39:29;;;;;;;57.08;37.45;;;19.90;99.90;;;;;;4998622;28;20057;-86
2023/08/25 07:41:54;;;;;;;59.88;41.20;;;19.90;99.90;;;;;;4998660;28;20030;-85
2023/08/25 07:44:20;;;;;;;56.05;37.92;;;19.90;99.90;;;;;;4998699;28;20029;-85
2023/08/25 07:46:45;;;;;;;49.13;36.03;;;19.90;99.90;;;;;;4997668;28;20030;-86
2023/08/25 07:49:11;;;;;;;49.25;34.50;;;19.90;99.90;;;;;;4981074;28;20029;-86
2023/08/25 07:51:37;;;;;;;43.80;32.85;;;19.90;99.90;;;;;;4985695;28;20026;-88
2023/08/25 07:54:03;;;;;;;62.50;37.70;;;19.90;99.90;;;;;;4994944;28;20019;-86
2023/08/25 07:56:29;;;;;;;52.55;35.88;;;19.90;99.90;;;;;;4995275;28;20054;-88
2023/08/25 07:58:55;;;;;;;49.72;35.13;;;19.90;99.90;;;;;;5010162;28;20030;-88
2023/08/25 08:01:20;;;;;;;48.15;33.38;;;19.80;99.90;;;;;;4994938;28;20023;-90
2023/08/25 08:03:46;;;;;;;49.35;33.85;;;19.80;99.90;;;;;;4983291;28;20030;-88
2023/08/25 08:06:11;;;;;;;56.03;35.28;;;19.70;99.90;;;;;;4978921;28;20066;-88
2023/08/25 08:08:38;;;;;;;46.00;33.50;;;19.70;99.90;;;;;;4998320;28;20449;-87
2023/08/25 08:11:03;;;;;;;51.95;35.30;;;19.70;99.90;;;;;;4997918;28;20026;-88
2023/08/25 08:13:29;;;;;;;58.63;35.30;;;19.70;99.90;;;;;;4998365;28;20052;-88
2023/08/25 08:15:55;;;;;;;51.60;33.40;;;19.60;99.90;;;;;;4981319;28;20026;-89
2023/08/25 08:18:21;;;;;;;51.88;36.90;;;19.60;99.90;;;;;;4980065;28;20081;-88
2023/08/25 08:20:48;;;;;;;53.45;35.63;;;19.60;99.90;;;;;;4978659;28;20420;-89
2023/08/25 08:23:14;;;;;;;48.17;33.97;;;19.60;99.90;;;;;;4994318;28;20109;-86
2023/08/25 08:25:39;;;;;;;43.08;33.38;;;19.70;99.90;;;;;;4998497;28;20423;-89
2023/08/25 08:28:08;;;;;;;46.67;33.00;;;19.80;99.90;;;;;;4998014;28;20040;-86
2023/08/25 08:30:34;;;;;;;44.67;33.53;;;19.90;99.90;;;;;;4997585;28;20097;-87
2023/08/25 08:32:59;;;;;;;46.00;33.15;;;19.90;99.90;;;;;;4997563;28;20026;-87
2023/08/25 08:35:25;;;;;;;48.05;34.63;;;20.00;99.90;;;;;;4998163;28;20058;-87
2023/08/25 08:37:51;;;;;;;48.88;35.00;;;20.00;99.90;;;;;;5006250;28;20037;-87
2023/08/25 08:40:16;;;;;;;41.45;31.23;;;20.10;99.90;;;;;;4995602;28;20382;-87
2023/08/25 08:42:45;;;;;;;43.97;32.05;;;20.10;99.90;;;;;;4985478;28;20028;-87
2023/08/25 08:45:11;;;;;;;41.65;31.10;;;20.10;99.90;;;;;;5009263;28;20033;-88
2023/08/25 08:47:37;;;;;;;40.70;29.80;;;20.00;99.90;;;;;;4994593;28;20117;-88
2023/08/25 08:50:06;;;;;;;40.47;29.45;;;20.00;99.90;;;;;;5002704;28;20022;-87
2023/08/25 08:52:32;;;;;;;35.40;27.33;;;20.00;99.90;;;;;;4997844;28;20053;-89
2023/08/25 08:54:59;;;;;;;40.28;31.35;;;20.00;99.90;;;;;;4997234;28;20050;-88
2023/08/25 08:57:28;;;;;;;40.95;31.15;;;20.00;99.90;;;;;;4997380;28;20045;-88
2023/08/25 08:59:58;;;;;;;36.78;28.70;;;20.00;99.90;;;;;;4997197;28;20391;-88
2023/08/25 09:02:27;;;;;;;40.40;30.90;;;20.00;99.90;;;;;;4997146;28;20501;-87
2023/08/25 09:04:57;;;;;;;33.53;27.58;;;20.10;99.90;;;;;;4990850;28;20041;-88
2023/08/25 09:07:26;;;;;;;34.55;27.15;;;20.10;99.90;;;;;;4997190;28;20049;-88
2023/08/25 09:09:52;;;;;;;33.97;26.70;;;20.10;99.90;;;;;;4996259;28;20743;-87
2023/08/25 09:12:19;;;;;;;31.83;25.85;;;20.10;99.90;;;;;;4981736;28;20076;-88
2023/08/25 09:14:45;;;;;;;31.52;24.40;;;20.10;99.90;;;;;;4996664;28;20026;-95
2023/08/25 09:17:14;;;;;;;29.63;24.20;;;20.20;99.90;;;;;;5014300;28;20038;-88
2023/08/25 09:19:40;;;;;;;27.00;23.08;;;20.20;99.90;;;;;;4995467;28;20026;-89
2023/08/25 09:22:10;;;;;;;24.02;21.23;;;20.20;99.90;;;;;;4996235;28;20553;-89
2023/08/25 09:24:37;;;;;;;26.50;21.55;;;20.20;99.90;;;;;;5008621;28;20057;-88
2023/08/25 09:27:03;;;;;;;23.02;20.15;;;20.20;99.90;;;;;;4993151;28;20482;-88
2023/08/25 09:29:41;;;;;;;22.70;20.25;;;20.20;99.90;;;;;;4995592;28;20029;-88
2023/08/25 09:32:06;;;;;;;23.70;20.30;;;20.20;99.90;;;;;;4998279;28;20036;-89
2023/08/25 09:34:32;;;;;;;22.88;19.67;;;20.20;99.90;;;;;;4996781;28;20117;-89
2023/08/25 09:36:58;;;;;;;23.67;19.73;;;20.10;99.90;;;;;;5001269;28;20041;-89
2023/08/25 09:39:23;;;;;;;20.77;18.50;;;20.10;99.90;;;;;;4991674;28;20026;-88
2023/08/25 09:41:49;;;;;;;21.73;18.58;;;20.10;99.90;;;;;;4995968;28;20038;-89
2023/08/25 09:44:16;;;;;;;21.35;18.48;;;20.00;99.90;;;;;;4988357;28;20442;-88
2023/08/25 09:46:42;;;;;;;18.77;16.70;;;20.00;99.90;;;;;;4995539;28;20021;-88
2023/08/25 09:49:10;;;;;;;16.85;14.88;;;19.90;99.90;;;;;;4990794;28;20064;-88
2023/08/25 09:51:47;;;;;;;19.27;17.27;;;19.90;99.90;;;;;;4984085;28;20574;-88
2023/08/25 09:54:17;;;;;;;20.17;16.38;;;19.80;99.90;;;;;;5008968;28;20036;-88
2023/08/25 09:56:44;;;;;;;25.17;18.77;;;19.70;99.90;;;;;;5028966;28;20116;-86
2023/08/25 09:59:11;;;;;;;41.72;20.27;;;19.60;99.90;;;;;;4996340;28;20026;-93
2023/08/25 10:01:43;;;;;;;24.67;18.23;;;19.60;99.90;;;;;;4996303;28;20037;-90
2023/08/25 10:04:09;;;;;;;;;;;19.50;99.90;;;;;;4996287;28;20018;-88
2023/08/25 10:06:37;;;;;;;16.65;13.02;;;19.40;99.90;;;;;;5009841;28;19910;-88
2023/08/25 10:09:04;;;;;;;14.07;12.27;;;19.60;99.90;;;;;;4988164;28;20030;-88
2023/08/25 10:11:41;;;;;;;20.45;16.75;;;19.70;99.90;;;;;;4976787;28;20395;-88
2023/08/25 10:14:10;;;;;;;19.45;16.10;;;20.00;99.90;;;;;;4996332;28;20019;-88
2023/08/25 10:16:44;;;;;;;15.40;13.80;;;20.20;99.90;;;;;;5015163;28;20401;-88
2023/08/25 10:19:14;;;;;;;14.98;13.40;;;20.50;99.90;;;;;;5005482;28;20042;-88
2023/08/25 10:21:43;;;;;;;14.73;13.23;;;20.70;99.90;;;;;;4979156;28;20394;-88
2023/08/25 10:24:10;;;;;;;16.48;14.77;;;20.90;99.90;;;;;;4976616;28;20029;-88
2023/08/25 10:26:36;;;;;;;16.02;14.40;;;21.10;99.90;;;;;;4980663;28;20031;-88
2023/08/25 10:29:03;;;;;;;16.67;14.63;;;21.30;99.90;;;;;;4993556;28;20065;-89
2023/08/25 10:31:30;;;;;;;16.88;15.18;;;21.70;99.90;;;;;;5008178;28;20561;-89
2023/08/25 10:33:56;;;;;;;15.63;14.13;;;22.00;99.90;;;;;;4995382;28;20109;-89
2023/08/25 10:36:22;;;;;;;15.32;13.82;;;22.30;99.90;;;;;;4994016;28;20053;-88
2023/08/25 10:38:57;;;;;;;17.27;15.57;;;22.50;99.90;;;;;;5005910;28;20105;-90
2023/08/25 10:41:23;;;;;;;15.07;13.68;;;22.60;99.90;;;;;;5013363;28;20364;-89
2023/08/25 10:43:53;;;;;;;17.73;15.93;;;22.80;99.90;;;;;;5012253;28;20020;-87
2023/08/25 10:46:23;;;;;;;15.55;14.15;;;22.80;99.90;;;;;;5013184;28;20033;-88
2023/08/25 10:49:02;;;;;;;17.20;15.50;;;22.80;99.90;;;;;;4994791;28;20049;-87
2023/08/25 10:51:27;;;;;;;16.58;15.07;;;22.70;99.90;;;;;;5013338;28;20526;-89
2023/08/25 10:53:54;;;;;;;15.63;14.02;;;22.50;99.90;;;;;;5013358;28;20029;-88
2023/08/25 10:56:23;;;;;;;15.43;13.98;;;22.30;99.90;;;;;;5012841;28;20495;-88
2023/08/25 10:59:10;;;;;;;14.30;13.10;;;22.20;99.90;;;;;;5012080;28;20026;-89
2023/08/25 11:01:42;;;;;;;14.40;12.90;;;22.00;99.90;;;;;;4979288;28;20026;-88
2023/08/25 11:04:29;;;;;;;15.02;13.60;;;21.90;99.90;;;;;;5012757;28;20030;-88
2023/08/25 11:06:56;;;;;;;13.77;12.50;;;21.80;99.90;;;;;;4997272;28;20033;-88
2023/08/25 11:09:24;;;;;;;14.52;13.13;;;21.70;99.90;;;;;;4997575;28;20018;-88
2023/08/25 11:12:01;;;;;;;14.15;12.73;;;21.70;99.90;;;;;;4997284;28;20030;-88
2023/08/25 11:14:28;;;;;;;14.82;13.27;;;21.80;99.90;;;;;;5008109;28;20026;-88
2023/08/25 11:17:00;;;;;;;15.50;13.77;;;21.70;99.90;;;;;;4995772;28;20384;-88
2023/08/25 11:19:26;;;;;;;13.90;12.55;;;21.70;99.90;;;;;;4997957;28;20573;-88
2023/08/25 11:22:07;;;;;;;14.52;13.00;;;21.60;99.90;;;;;;5015376;28;20041;-88
2023/08/25 11:24:33;;;;;;;16.35;14.85;;;21.70;99.90;;;;;;4998322;28;20494;-88
2023/08/25 11:27:10;;;;;;;16.30;14.63;;;21.80;99.90;;;;;;4979880;28;20014;-89
2023/08/25 11:29:35;;;;;;;17.10;13.68;;;22.10;99.90;;;;;;4979989;28;20039;-88
2023/08/25 11:32:02;;;;;;;13.95;12.75;;;22.40;99.90;;;;;;5014696;28;20392;-88
2023/08/25 11:34:31;;;;;;;15.60;14.15;;;22.50;99.90;;;;;;4999266;28;20494;-88
2023/08/25 11:36:57;;;;;;;15.43;13.95;;;22.50;99.90;;;;;;4998494;28;20503;-88
2023/08/25 11:39:23;;;;;;;16.33;14.73;;;22.50;99.90;;;;;;4980538;28;20122;-88
2023/08/25 11:41:56;;;;;;;16.05;14.48;;;22.50;99.90;;;;;;4998580;28;20076;-89
2023/08/25 11:44:25;;;;;;;15.13;13.52;;;22.50;99.90;;;;;;4998853;28;20471;-87
2023/08/25 11:46:54;;;;;;;16.70;15.00;;;22.40;99.90;;;;;;4997779;28;20026;-88
2023/08/25 11:49:20;;;;;;;16.42;14.70;;;22.30;99.90;;;;;;4991720;28;20024;-85
2023/08/25 11:51:48;;;;;;;16.05;14.65;;;22.10;99.90;;;;;;4998568;28;20029;-87
2023/08/25 11:54:14;;;;;;;15.65;14.15;;;22.00;99.90;;;;;;4998628;28;20026;-87
2023/08/25 11:56:48;;;;;;;16.50;14.88;;;21.90;99.90;;;;;;4998651;28;20049;-86
2023/08/25 11:59:17;;;;;;;15.98;14.02;;;21.80;99.90;;;;;;4998781;28;20037;-87
2023/08/25 12:01:43;;;;;;;16.13;14.57;;;21.80;99.90;;;;;;4998438;28;20036;-87
2023/08/25 12:04:25;;;;;;;16.40;14.90;;;21.80;99.90;;;;;;4992717;28;20029;-88
2023/08/25 12:06:57;;;;;;;16.88;15.25;;;21.70;99.90;;;;;;4997948;28;20044;-88
2023/08/25 12:09:24;;;;;;;16.73;15.15;;;21.70;99.90;;;;;;4998800;28;20133;-88
2023/08/25 12:11:56;;;;;;;18.73;16.67;;;21.60;99.90;;;;;;4996247;28;20022;-87
2023/08/25 12:14:29;;;;;;;18.30;16.60;;;21.60;99.90;;;;;;4998519;28;20042;-88
2023/08/25 12:16:56;;;;;;;19.77;17.77;;;21.80;99.90;;;;;;4997138;28;20087;-88
2023/08/25 12:19:26;;;;;;;18.40;16.60;;;22.00;99.90;;;;;;4983182;28;20050;-88
2023/08/25 12:21:56;;;;;;;19.50;16.88;;;22.10;99.90;;;;;;4998255;28;20026;-87
2023/08/25 12:24:22;;;;;;;19.95;18.10;;;22.10;99.90;;;;;;5003460;28;20023;-87
2023/08/25 12:26:48;;;;;;;18.30;16.58;;;22.00;99.90;;;;;;5001448;28;20490;-87
2023/08/25 12:29:15;;;;;;;20.40;17.45;;;21.90;99.90;;;;;;4996091;28;20045;-86